sensor_id;sensor_type;location;lat;lon;timestamp;pressure;altitude;pressure_sealevel;temperature;humidity
72409;BME280;60402;48.082;11.628;2024-03-08T00:00:29;95213.91;;;-0.43;100.00
72409;BME280;60402;48.082;11.628;2024-03-08T00:03:18;95218.94;;;-0.53;100.00
72409;BME280;60402;48.082;11.628;2024-03-08T00:06:04;95211.41;;;-0.52;100.00
72409;BME280;60402;48.082;11.628;2024-03-08T00:08:51;95233.06;;;-0.31;100.00
72409;BME280;60402;48.082;11.628;2024-03-08T00:11:37;95225.28;;;-0.52;100.00
72409;BME280;60402;48.082;11.628;2024-03-08T00:14:23;95230.66;;;-0.36;100.00
72409;BME280;60402;48.082;11.628;2024-03-08T00:17:08;95211.75;;;-0.57;100.00
72409;BME280;60402;48.082;11.628;2024-03-08T00:19:54;95227.63;;;-0.58;100.00
72409;BME280;60402;48.082;11.628;2024-03-08T00:22:40;95216.00;;;-0.70;100.00
72409;BME280;60402;48.082;11.628;2024-03-08T00:25:26;95209.53;;;-0.78;100.00
72409;BME280;60402;48.082;11.628;2024-03-08T00:28:11;95206.34;;;-0.80;100.00
72409;BME280;60402;48.082;11.628;2024-03-08T00:31:00;95202.81;;;-0.77;100.00
72409;BME280;60402;48.082;11.628;2024-03-08T00:33:46;95197.66;;;-0.79;100.00
72409;BME280;60402;48.082;11.628;2024-03-08T00:36:32;95197.53;;;-0.56;100.00
72409;BME280;60402;48.082;11.628;2024-03-08T00:39:18;95193.13;;;-0.60;100.00
72409;BME280;60402;48.082;11.628;2024-03-08T00:42:05;95192.81;;;-0.48;100.00
72409;BME280;60402;48.082;11.628;2024-03-08T00:44:51;95184.88;;;-0.49;100.00
72409;BME280;60402;48.082;11.628;2024-03-08T00:47:36;95181.22;;;-0.57;100.00
72409;BME280;60402;48.082;11.628;2024-03-08T00:50:22;95183.84;;;-0.75;100.00
72409;BME280;60402;48.082;11.628;2024-03-08T00:53:07;95155.88;;;-0.93;100.00
72409;BME280;60402;48.082;11.628;2024-03-08T00:55:53;95163.41;;;-0.90;100.00
72409;BME280;60402;48.082;11.628;2024-03-08T00:58:40;95162.69;;;-0.87;100.00
72409;BME280;60402;48.082;11.628;2024-03-08T01:01:26;95182.88;;;-0.86;100.00
72409;BME280;60402;48.082;11.628;2024-03-08T01:04:11;95173.38;;;-0.85;100.00
72409;BME280;60402;48.082;11.628;2024-03-08T01:06:58;95178.53;;;-0.87;100.00
72409;BME280;60402;48.082;11.628;2024-03-08T01:09:44;95165.00;;;-0.92;100.00
72409;BME280;60402;48.082;11.628;2024-03-08T01:12:30;95170.19;;;-0.87;100.00
72409;BME280;60402;48.082;11.628;2024-03-08T01:15:15;95157.06;;;-0.94;100.00
72409;BME280;60402;48.082;11.628;2024-03-08T01:18:01;95168.16;;;-0.94;100.00
72409;BME280;60402;48.082;11.628;2024-03-08T01:20:47;95157.34;;;-1.02;100.00
72409;BME280;60402;48.082;11.628;2024-03-08T01:23:32;95166.19;;;-0.90;100.00
72409;BME280;60402;48.082;11.628;2024-03-08T01:26:20;95140.72;;;-0.99;100.00
72409;BME280;60402;48.082;11.628;2024-03-08T01:29:05;95146.63;;;-0.70;100.00
72409;BME280;60402;48.082;11.628;2024-03-08T01:31:51;95105.00;;;-1.08;100.00
72409;BME280;60402;48.082;11.628;2024-03-08T01:34:37;95133.06;;;-0.79;100.00
72409;BME280;60402;48.082;11.628;2024-03-08T01:37:23;95130.97;;;-0.89;100.00
72409;BME280;60402;48.082;11.628;2024-03-08T01:40:09;95126.00;;;-0.69;100.00
72409;BME280;60402;48.082;11.628;2024-03-08T01:42:55;95123.34;;;-0.96;100.00
72409;BME280;60402;48.082;11.628;2024-03-08T01:45:41;95106.63;;;-1.03;100.00
72409;BME280;60402;48.082;11.628;2024-03-08T01:48:27;95121.66;;;-0.67;100.00
72409;BME280;60402;48.082;11.628;2024-03-08T01:51:14;95105.94;;;-0.93;100.00
72409;BME280;60402;48.082;11.628;2024-03-08T01:54:02;95106.97;;;-1.08;100.00
72409;BME280;60402;48.082;11.628;2024-03-08T01:56:48;95092.16;;;-1.19;100.00
72409;BME280;60402;48.082;11.628;2024-03-08T01:59:35;95095.69;;;-1.22;100.00
72409;BME280;60402;48.082;11.628;2024-03-08T02:02:21;95104.09;;;-1.15;100.00
72409;BME280;60402;48.082;11.628;2024-03-08T02:05:07;95082.44;;;-1.06;100.00
72409;BME280;60402;48.082;11.628;2024-03-08T02:07:53;95086.50;;;-0.96;100.00
72409;BME280;60402;48.082;11.628;2024-03-08T02:10:44;95084.81;;;-1.05;100.00
72409;BME280;60402;48.082;11.628;2024-03-08T02:13:30;95072.31;;;-1.25;100.00
72409;BME280;60402;48.082;11.628;2024-03-08T02:16:22;95095.84;;;-1.12;100.00
72409;BME280;60402;48.082;11.628;2024-03-08T02:19:08;95084.66;;;-1.19;100.00
72409;BME280;60402;48.082;11.628;2024-03-08T02:21:55;95095.50;;;-1.07;100.00
72409;BME280;60402;48.082;11.628;2024-03-08T02:24:41;95078.91;;;-1.03;100.00
72409;BME280;60402;48.082;11.628;2024-03-08T02:27:27;95083.84;;;-1.19;100.00
72409;BME280;60402;48.082;11.628;2024-03-08T02:30:15;95082.66;;;-1.22;100.00
72409;BME280;60402;48.082;11.628;2024-03-08T02:33:02;95077.53;;;-1.20;100.00
72409;BME280;60402;48.082;11.628;2024-03-08T02:35:49;95080.44;;;-1.06;100.00
72409;BME280;60402;48.082;11.628;2024-03-08T02:38:36;95085.09;;;-1.17;100.00
72409;BME280;60402;48.082;11.628;2024-03-08T02:41:21;95055.00;;;-1.48;100.00
72409;BME280;60402;48.082;11.628;2024-03-08T02:44:08;95075.47;;;-1.26;100.00
72409;BME280;60402;48.082;11.628;2024-03-08T02:46:54;95067.00;;;-1.41;100.00
72409;BME280;60402;48.082;11.628;2024-03-08T02:49:40;95076.28;;;-1.26;100.00
72409;BME280;60402;48.082;11.628;2024-03-08T02:52:26;95065.81;;;-1.40;100.00
72409;BME280;60402;48.082;11.628;2024-03-08T02:55:11;95065.47;;;-1.35;100.00
72409;BME280;60402;48.082;11.628;2024-03-08T02:58:01;95073.84;;;-1.27;100.00
72409;BME280;60402;48.082;11.628;2024-03-08T03:00:47;95059.19;;;-1.28;100.00
72409;BME280;60402;48.082;11.628;2024-03-08T03:03:32;95051.94;;;-1.40;100.00
72409;BME280;60402;48.082;11.628;2024-03-08T03:06:18;95071.81;;;-1.34;100.00
72409;BME280;60402;48.082;11.628;2024-03-08T03:09:06;95038.78;;;-1.50;100.00
72409;BME280;60402;48.082;11.628;2024-03-08T03:11:52;95035.09;;;-1.58;100.00
72409;BME280;60402;48.082;11.628;2024-03-08T03:14:37;95061.09;;;-1.36;100.00
72409;BME280;60402;48.082;11.628;2024-03-08T03:17:26;95053.44;;;-1.46;100.00
72409;BME280;60402;48.082;11.628;2024-03-08T03:20:12;95044.72;;;-1.48;100.00
72409;BME280;60402;48.082;11.628;2024-03-08T03:23:08;95058.34;;;-1.32;100.00
72409;BME280;60402;48.082;11.628;2024-03-08T03:25:54;95028.81;;;-1.55;100.00
72409;BME280;60402;48.082;11.628;2024-03-08T03:28:42;95048.75;;;-1.42;100.00
72409;BME280;60402;48.082;11.628;2024-03-08T03:31:28;95053.78;;;-1.51;100.00
72409;BME280;60402;48.082;11.628;2024-03-08T03:34:14;95037.03;;;-1.62;100.00
72409;BME280;60402;48.082;11.628;2024-03-08T03:37:00;95055.41;;;-1.50;100.00
72409;BME280;60402;48.082;11.628;2024-03-08T03:39:48;95040.75;;;-1.47;100.00
72409;BME280;60402;48.082;11.628;2024-03-08T03:42:34;95043.13;;;-1.49;100.00
72409;BME280;60402;48.082;11.628;2024-03-08T03:45:20;95040.69;;;-1.54;100.00
72409;BME280;60402;48.082;11.628;2024-03-08T03:48:06;95021.94;;;-1.68;100.00
72409;BME280;60402;48.082;11.628;2024-03-08T03:50:54;95043.88;;;-1.52;100.00
72409;BME280;60402;48.082;11.628;2024-03-08T03:53:39;95027.84;;;-1.69;100.00
72409;BME280;60402;48.082;11.628;2024-03-08T03:56:26;95026.28;;;-1.67;100.00
72409;BME280;60402;48.082;11.628;2024-03-08T03:59:12;95026.78;;;-1.58;100.00
72409;BME280;60402;48.082;11.628;2024-03-08T04:01:57;95025.09;;;-1.66;100.00
72409;BME280;60402;48.082;11.628;2024-03-08T04:04:43;95024.47;;;-1.52;100.00
72409;BME280;60402;48.082;11.628;2024-03-08T04:07:31;95027.53;;;-1.61;100.00
72409;BME280;60402;48.082;11.628;2024-03-08T04:10:17;95045.44;;;-1.55;100.00
72409;BME280;60402;48.082;11.628;2024-03-08T04:13:02;95034.34;;;-1.55;100.00
72409;BME280;60402;48.082;11.628;2024-03-08T04:15:49;95003.53;;;-1.83;100.00
72409;BME280;60402;48.082;11.628;2024-03-08T04:18:35;95031.94;;;-1.60;100.00
72409;BME280;60402;48.082;11.628;2024-03-08T04:21:21;95034.31;;;-1.58;100.00
72409;BME280;60402;48.082;11.628;2024-03-08T04:24:06;95022.44;;;-1.59;100.00
72409;BME280;60402;48.082;11.628;2024-03-08T04:26:52;95034.31;;;-1.58;100.00
72409;BME280;60402;48.082;11.628;2024-03-08T04:29:38;95033.50;;;-1.59;100.00
72409;BME280;60402;48.082;11.628;2024-03-08T04:32:24;94991.19;;;-1.89;100.00
72409;BME280;60402;48.082;11.628;2024-03-08T04:35:09;94992.19;;;-1.71;100.00
72409;BME280;60402;48.082;11.628;2024-03-08T04:37:55;95025.19;;;-1.59;100.00
72409;BME280;60402;48.082;11.628;2024-03-08T04:40:43;95025.50;;;-1.67;100.00
72409;BME280;60402;48.082;11.628;2024-03-08T04:43:28;95016.34;;;-1.71;100.00
72409;BME280;60402;48.082;11.628;2024-03-08T04:46:15;95007.94;;;-1.78;100.00
72409;BME280;60402;48.082;11.628;2024-03-08T04:49:01;95015.88;;;-1.77;100.00
72409;BME280;60402;48.082;11.628;2024-03-08T04:51:47;95017.50;;;-1.72;100.00
72409;BME280;60402;48.082;11.628;2024-03-08T04:54:33;95003.16;;;-1.82;100.00
72409;BME280;60402;48.082;11.628;2024-03-08T04:57:18;95027.03;;;-1.70;100.00
72409;BME280;60402;48.082;11.628;2024-03-08T05:00:04;95001.69;;;-1.72;100.00
72409;BME280;60402;48.082;11.628;2024-03-08T05:02:56;95008.31;;;-1.80;100.00
72409;BME280;60402;48.082;11.628;2024-03-08T05:05:42;95004.06;;;-1.74;100.00
72409;BME280;60402;48.082;11.628;2024-03-08T05:08:27;95022.34;;;-1.66;100.00
72409;BME280;60402;48.082;11.628;2024-03-08T05:11:13;95008.75;;;-1.78;100.00
72409;BME280;60402;48.082;11.628;2024-03-08T05:14:00;95015.13;;;-1.74;100.00
72409;BME280;60402;48.082;11.628;2024-03-08T05:16:46;94989.53;;;-1.94;100.00
72409;BME280;60402;48.082;11.628;2024-03-08T05:19:36;95000.44;;;-1.78;100.00
72409;BME280;60402;48.082;11.628;2024-03-08T05:22:21;95013.94;;;-1.73;100.00
72409;BME280;60402;48.082;11.628;2024-03-08T05:25:08;94980.56;;;-1.84;100.00
72409;BME280;60402;48.082;11.628;2024-03-08T05:27:54;95009.59;;;-1.74;100.00
72409;BME280;60402;48.082;11.628;2024-03-08T05:30:39;94992.13;;;-1.78;100.00
72409;BME280;60402;48.082;11.628;2024-03-08T05:33:25;94979.53;;;-1.72;100.00
72409;BME280;60402;48.082;11.628;2024-03-08T05:36:11;94990.28;;;-1.67;100.00
72409;BME280;60402;48.082;11.628;2024-03-08T05:38:57;94994.00;;;-1.52;100.00
72409;BME280;60402;48.082;11.628;2024-03-08T05:41:43;95007.56;;;-1.43;100.00
72409;BME280;60402;48.082;11.628;2024-03-08T05:44:29;94987.22;;;-1.58;100.00
72409;BME280;60402;48.082;11.628;2024-03-08T05:47:16;94989.69;;;-1.49;100.00
72409;BME280;60402;48.082;11.628;2024-03-08T05:50:02;94996.22;;;-1.31;100.00
72409;BME280;60402;48.082;11.628;2024-03-08T05:52:47;94998.59;;;-1.30;100.00
72409;BME280;60402;48.082;11.628;2024-03-08T05:55:33;94971.88;;;-1.48;100.00
72409;BME280;60402;48.082;11.628;2024-03-08T05:58:20;94996.28;;;-1.24;100.00
72409;BME280;60402;48.082;11.628;2024-03-08T06:01:06;94978.38;;;-1.34;100.00
72409;BME280;60402;48.082;11.628;2024-03-08T06:03:53;94970.44;;;-1.35;100.00
72409;BME280;60402;48.082;11.628;2024-03-08T06:06:41;94988.34;;;-1.25;100.00
72409;BME280;60402;48.082;11.628;2024-03-08T06:09:27;94986.00;;;-1.23;100.00
72409;BME280;60402;48.082;11.628;2024-03-08T06:12:12;94977.66;;;-1.27;100.00
72409;BME280;60402;48.082;11.628;2024-03-08T06:15:04;94996.03;;;-1.12;100.00
72409;BME280;60402;48.082;11.628;2024-03-08T06:17:50;94990.03;;;-1.17;100.00
72409;BME280;60402;48.082;11.628;2024-03-08T06:20:38;94995.53;;;-1.21;100.00
72409;BME280;60402;48.082;11.628;2024-03-08T06:23:23;94987.16;;;-1.24;100.00
72409;BME280;60402;48.082;11.628;2024-03-08T06:26:09;94966.09;;;-1.36;100.00
72409;BME280;60402;48.082;11.628;2024-03-08T06:28:55;94978.09;;;-1.21;100.00
72409;BME280;60402;48.082;11.628;2024-03-08T06:31:40;94993.59;;;-1.13;100.00
72409;BME280;60402;48.082;11.628;2024-03-08T06:34:26;94997.25;;;-1.06;100.00
72409;BME280;60402;48.082;11.628;2024-03-08T06:37:12;94987.44;;;-0.96;100.00
72409;BME280;60402;48.082;11.628;2024-03-08T06:40:01;94990.97;;;-1.02;100.00
72409;BME280;60402;48.082;11.628;2024-03-08T06:42:47;94991.31;;;-1.04;100.00
72409;BME280;60402;48.082;11.628;2024-03-08T06:45:32;94994.66;;;-0.88;100.00
72409;BME280;60402;48.082;11.628;2024-03-08T06:48:19;95001.41;;;-0.85;100.00
72409;BME280;60402;48.082;11.628;2024-03-08T06:51:05;94994.66;;;-0.88;100.00
72409;BME280;60402;48.082;11.628;2024-03-08T06:53:50;94994.63;;;-0.91;100.00
72409;BME280;60402;48.082;11.628;2024-03-08T06:56:37;95008.84;;;-0.96;100.00
72409;BME280;60402;48.082;11.628;2024-03-08T06:59:23;94998.13;;;-0.98;100.00
72409;BME280;60402;48.082;11.628;2024-03-08T07:02:09;94966.88;;;-0.91;100.00
72409;BME280;60402;48.082;11.628;2024-03-08T07:04:54;94984.13;;;-0.68;100.00
72409;BME280;60402;48.082;11.628;2024-03-08T07:07:41;94995.25;;;-0.64;100.00
72409;BME280;60402;48.082;11.628;2024-03-08T07:10:27;94974.72;;;-0.56;100.00
72409;BME280;60402;48.082;11.628;2024-03-08T07:13:14;94985.00;;;-0.57;100.00
72409;BME280;60402;48.082;11.628;2024-03-08T07:15:59;94991.72;;;-0.58;100.00
72409;BME280;60402;48.082;11.628;2024-03-08T07:18:46;94976.66;;;-0.60;100.00
72409;BME280;60402;48.082;11.628;2024-03-08T07:21:32;94979.09;;;-0.48;100.00
72409;BME280;60402;48.082;11.628;2024-03-08T07:24:17;94991.47;;;-0.42;100.00
72409;BME280;60402;48.082;11.628;2024-03-08T07:27:06;94962.00;;;-0.57;100.00
72409;BME280;60402;48.082;11.628;2024-03-08T07:29:52;94972.56;;;-0.22;100.00
72409;BME280;60402;48.082;11.628;2024-03-08T07:32:37;94976.06;;;-0.29;100.00
72409;BME280;60402;48.082;11.628;2024-03-08T07:35:23;94979.00;;;-0.04;100.00
72409;BME280;60402;48.082;11.628;2024-03-08T07:38:11;94960.63;;;-0.26;100.00
72409;BME280;60402;48.082;11.628;2024-03-08T07:40:57;94916.50;;;-0.38;100.00
72409;BME280;60402;48.082;11.628;2024-03-08T07:43:43;94939.34;;;-0.04;100.00
72409;BME280;60402;48.082;11.628;2024-03-08T07:46:28;94967.22;;;0.28;100.00
72409;BME280;60402;48.082;11.628;2024-03-08T07:49:14;94976.31;;;0.11;100.00
72409;BME280;60402;48.082;11.628;2024-03-08T07:52:00;94964.03;;;0.15;100.00
72409;BME280;60402;48.082;11.628;2024-03-08T07:54:46;94969.59;;;0.15;100.00
72409;BME280;60402;48.082;11.628;2024-03-08T07:57:31;94947.91;;;0.57;100.00
72409;BME280;60402;48.082;11.628;2024-03-08T08:00:17;94932.03;;;0.68;100.00
72409;BME280;60402;48.082;11.628;2024-03-08T08:03:04;94950.78;;;1.28;100.00
72409;BME280;60402;48.082;11.628;2024-03-08T08:05:50;94954.75;;;1.31;100.00
72409;BME280;60402;48.082;11.628;2024-03-08T08:08:36;94957.94;;;1.29;100.00
72409;BME280;60402;48.082;11.628;2024-03-08T08:11:22;94965.88;;;1.06;100.00
72409;BME280;60402;48.082;11.628;2024-03-08T08:14:07;94934.06;;;1.24;100.00
72409;BME280;60402;48.082;11.628;2024-03-08T08:16:55;94954.72;;;1.13;100.00
72409;BME280;60402;48.082;11.628;2024-03-08T08:19:42;94959.09;;;1.67;100.00
72409;BME280;60402;48.082;11.628;2024-03-08T08:22:28;94957.91;;;1.79;100.00
72409;BME280;60402;48.082;11.628;2024-03-08T08:25:14;94948.38;;;1.55;100.00
72409;BME280;60402;48.082;11.628;2024-03-08T08:28:00;94956.72;;;1.80;100.00
72409;BME280;60402;48.082;11.628;2024-03-08T08:30:49;94933.75;;;2.53;100.00
72409;BME280;60402;48.082;11.628;2024-03-08T08:33:35;94945.16;;;2.87;100.00
72409;BME280;60402;48.082;11.628;2024-03-08T08:36:21;94943.09;;;4.33;100.00
72409;BME280;60402;48.082;11.628;2024-03-08T08:39:07;94918.22;;;4.69;94.61
72409;BME280;60402;48.082;11.628;2024-03-08T08:41:58;94931.19;;;5.41;90.14
72409;BME280;60402;48.082;11.628;2024-03-08T08:44:44;94930.22;;;6.45;87.14
72409;BME280;60402;48.082;11.628;2024-03-08T08:47:30;94915.38;;;6.01;81.85
72409;BME280;60402;48.082;11.628;2024-03-08T08:50:16;94916.41;;;5.40;87.66
72409;BME280;60402;48.082;11.628;2024-03-08T08:53:01;94928.03;;;7.45;78.50
72409;BME280;60402;48.082;11.628;2024-03-08T08:55:49;94908.78;;;7.92;70.83
72409;BME280;60402;48.082;11.628;2024-03-08T08:58:34;94895.06;;;9.23;66.88
72409;BME280;60402;48.082;11.628;2024-03-08T09:01:20;94895.91;;;10.88;61.59
72409;BME280;60402;48.082;11.628;2024-03-08T09:04:06;94907.09;;;12.71;55.52
72409;BME280;60402;48.082;11.628;2024-03-08T09:06:53;94901.25;;;11.79;55.31
72409;BME280;60402;48.082;11.628;2024-03-08T09:09:39;94890.09;;;12.89;53.53
72409;BME280;60402;48.082;11.628;2024-03-08T09:12:25;94902.50;;;12.37;54.46
72409;BME280;60402;48.082;11.628;2024-03-08T09:15:10;94886.41;;;13.25;50.88
72409;BME280;60402;48.082;11.628;2024-03-08T09:17:56;94887.09;;;9.94;58.63
72409;BME280;60402;48.082;11.628;2024-03-08T09:20:42;94892.38;;;12.08;54.32
72409;BME280;60402;48.082;11.628;2024-03-08T09:23:28;94895.69;;;12.07;57.28
72409;BME280;60402;48.082;11.628;2024-03-08T09:26:15;94882.50;;;12.31;53.25
72409;BME280;60402;48.082;11.628;2024-03-08T09:29:02;94884.59;;;13.55;49.83
72409;BME280;60402;48.082;11.628;2024-03-08T09:31:47;94882.44;;;13.41;49.61
72409;BME280;60402;48.082;11.628;2024-03-08T09:34:33;94873.47;;;13.34;50.55
72409;BME280;60402;48.082;11.628;2024-03-08T09:37:19;94876.06;;;12.76;51.24
72409;BME280;60402;48.082;11.628;2024-03-08T09:40:05;94864.72;;;13.89;49.92
72409;BME280;60402;48.082;11.628;2024-03-08T09:42:55;94872.16;;;13.44;50.57
72409;BME280;60402;48.082;11.628;2024-03-08T09:45:41;94863.03;;;14.06;49.30
72409;BME280;60402;48.082;11.628;2024-03-08T09:48:27;94856.47;;;14.24;48.97
72409;BME280;60402;48.082;11.628;2024-03-08T09:51:14;94847.84;;;12.91;50.63
72409;BME280;60402;48.082;11.628;2024-03-08T09:54:02;94866.94;;;11.68;54.69
72409;BME280;60402;48.082;11.628;2024-03-08T09:56:51;94866.41;;;11.91;54.02
72409;BME280;60402;48.082;11.628;2024-03-08T09:59:42;94874.38;;;10.59;58.83
72409;BME280;60402;48.082;11.628;2024-03-08T10:02:33;94868.75;;;9.01;63.61
72409;BME280;60402;48.082;11.628;2024-03-08T10:05:20;94855.25;;;8.25;69.69
72409;BME280;60402;48.082;11.628;2024-03-08T10:08:07;94846.41;;;7.64;72.05
72409;BME280;60402;48.082;11.628;2024-03-08T10:10:53;94871.28;;;7.17;74.87
72409;BME280;60402;48.082;11.628;2024-03-08T10:13:39;94855.16;;;6.85;78.25
72409;BME280;60402;48.082;11.628;2024-03-08T10:16:27;94834.88;;;6.21;80.39
72409;BME280;60402;48.082;11.628;2024-03-08T10:19:14;94868.66;;;6.34;84.62
72409;BME280;60402;48.082;11.628;2024-03-08T10:22:02;94838.09;;;6.00;85.76
72409;BME280;60402;48.082;11.628;2024-03-08T10:24:49;94842.53;;;5.74;87.30
72409;BME280;60402;48.082;11.628;2024-03-08T10:27:36;94840.19;;;5.72;87.72
72409;BME280;60402;48.082;11.628;2024-03-08T10:30:22;94820.56;;;5.72;88.89
72409;BME280;60402;48.082;11.628;2024-03-08T10:33:08;94815.91;;;5.42;87.59
72409;BME280;60402;48.082;11.628;2024-03-08T10:35:54;94843.72;;;5.76;91.03
72409;BME280;60402;48.082;11.628;2024-03-08T10:38:42;94837.16;;;5.83;88.38
72409;BME280;60402;48.082;11.628;2024-03-08T10:41:32;94839.28;;;5.79;88.21
72409;BME280;60402;48.082;11.628;2024-03-08T10:47:19;94815.44;;;5.67;88.44
72409;BME280;60402;48.082;11.628;2024-03-08T10:50:19;94805.09;;;5.64;89.30
72409;BME280;60402;48.082;11.628;2024-03-08T10:53:10;94812.34;;;5.61;89.54
72409;BME280;60402;48.082;11.628;2024-03-08T10:55:59;94806.03;;;5.57;89.03
72409;BME280;60402;48.082;11.628;2024-03-08T10:58:46;94808.75;;;5.61;89.35
72409;BME280;60402;48.082;11.628;2024-03-08T11:01:35;94765.81;;;5.44;88.79
72409;BME280;60402;48.082;11.628;2024-03-08T11:04:47;94814.13;;;5.95;88.95
72409;BME280;60402;48.082;11.628;2024-03-08T11:07:42;94811.03;;;5.89;87.15
72409;BME280;60402;48.082;11.628;2024-03-08T11:10:28;94784.00;;;5.79;87.52
72409;BME280;60402;48.082;11.628;2024-03-08T11:13:33;94800.84;;;6.19;88.24
72409;BME280;60402;48.082;11.628;2024-03-08T11:22:04;94794.94;;;6.13;86.38
72409;BME280;60402;48.082;11.628;2024-03-08T11:24:49;94770.78;;;6.00;84.05
72409;BME280;60402;48.082;11.628;2024-03-08T11:27:36;94772.63;;;6.26;83.41
72409;BME280;60402;48.082;11.628;2024-03-08T11:30:24;94764.91;;;6.30;84.18
72409;BME280;60402;48.082;11.628;2024-03-08T11:33:15;94747.78;;;6.45;83.28
72409;BME280;60402;48.082;11.628;2024-03-08T11:38:57;94766.78;;;6.37;82.11
72409;BME280;60402;48.082;11.628;2024-03-08T11:41:43;94778.09;;;6.70;84.52
72409;BME280;60402;48.082;11.628;2024-03-08T11:44:31;94776.22;;;6.63;83.87
72409;BME280;60402;48.082;11.628;2024-03-08T11:47:20;94785.44;;;6.63;83.56
72409;BME280;60402;48.082;11.628;2024-03-08T11:50:10;94748.84;;;6.51;83.52
72409;BME280;60402;48.082;11.628;2024-03-08T11:53:03;94759.75;;;6.65;83.25
72409;BME280;60402;48.082;11.628;2024-03-08T11:55:49;94761.31;;;6.66;85.39
72409;BME280;60402;48.082;11.628;2024-03-08T11:58:35;94751.53;;;6.38;84.33
72409;BME280;60402;48.082;11.628;2024-03-08T12:01:23;94760.09;;;6.83;82.98
72409;BME280;60402;48.082;11.628;2024-03-08T12:04:13;94750.91;;;6.83;80.64
72409;BME280;60402;48.082;11.628;2024-03-08T12:07:02;94740.72;;;6.89;81.89
72409;BME280;60402;48.082;11.628;2024-03-08T12:10:20;94736.06;;;6.99;83.47
72409;BME280;60402;48.082;11.628;2024-03-08T12:13:07;94703.38;;;7.05;84.56
72409;BME280;60402;48.082;11.628;2024-03-08T12:15:58;94739.03;;;7.08;82.13
72409;BME280;60402;48.082;11.628;2024-03-08T12:18:44;94710.88;;;7.11;80.68
72409;BME280;60402;48.082;11.628;2024-03-08T12:21:35;94716.22;;;7.06;80.45
72409;BME280;60402;48.082;11.628;2024-03-08T12:24:21;94718.75;;;7.16;80.80
72409;BME280;60402;48.082;11.628;2024-03-08T12:27:20;94724.00;;;7.31;80.52
72409;BME280;60402;48.082;11.628;2024-03-08T12:30:25;94706.44;;;7.27;76.73
72409;BME280;60402;48.082;11.628;2024-03-08T12:33:14;94717.78;;;7.23;78.68
72409;BME280;60402;48.082;11.628;2024-03-08T12:36:00;94715.16;;;7.16;80.61
72409;BME280;60402;48.082;11.628;2024-03-08T12:38:47;94709.91;;;7.02;81.53
72409;BME280;60402;48.082;11.628;2024-03-08T12:41:39;94673.47;;;6.82;81.34
72409;BME280;60402;48.082;11.628;2024-03-08T12:44:26;94689.13;;;7.28;78.54
72409;BME280;60402;48.082;11.628;2024-03-08T12:47:13;94681.47;;;7.45;78.21
72409;BME280;60402;48.082;11.628;2024-03-08T12:49:59;94672.47;;;7.50;78.10
72409;BME280;60402;48.082;11.628;2024-03-08T12:52:45;94658.56;;;7.59;77.53
72409;BME280;60402;48.082;11.628;2024-03-08T12:55:30;94681.78;;;7.76;75.18
72409;BME280;60402;48.082;11.628;2024-03-08T12:58:18;94606.28;;;7.20;75.92
72409;BME280;60402;48.082;11.628;2024-03-08T13:01:07;94664.19;;;7.59;76.75
72409;BME280;60402;48.082;11.628;2024-03-08T13:03:53;94638.53;;;7.57;75.84
72409;BME280;60402;48.082;11.628;2024-03-08T13:06:43;94669.09;;;7.84;75.73
72409;BME280;60402;48.082;11.628;2024-03-08T13:09:29;94664.53;;;7.61;75.96
72409;BME280;60402;48.082;11.628;2024-03-08T13:12:14;94652.41;;;7.64;73.82
72409;BME280;60402;48.082;11.628;2024-03-08T13:15:00;94643.22;;;7.77;75.99
72409;BME280;60402;48.082;11.628;2024-03-08T13:17:47;94665.34;;;7.75;73.82
72409;BME280;60402;48.082;11.628;2024-03-08T13:20:33;94666.22;;;8.01;74.56
72409;BME280;60402;48.082;11.628;2024-03-08T13:23:22;94640.97;;;7.84;73.69
72409;BME280;60402;48.082;11.628;2024-03-08T13:26:09;94659.09;;;7.96;72.29
72409;BME280;60402;48.082;11.628;2024-03-08T13:28:57;94647.16;;;7.92;71.93
72409;BME280;60402;48.082;11.628;2024-03-08T13:31:43;94628.72;;;7.91;73.62
72409;BME280;60402;48.082;11.628;2024-03-08T13:34:29;94633.56;;;7.90;72.82
72409;BME280;60402;48.082;11.628;2024-03-08T13:37:15;94646.19;;;8.11;72.65
72409;BME280;60402;48.082;11.628;2024-03-08T13:40:01;94638.63;;;8.08;72.87
72409;BME280;60402;48.082;11.628;2024-03-08T13:42:51;94620.88;;;8.24;71.26
72409;BME280;60402;48.082;11.628;2024-03-08T13:45:36;94601.06;;;8.15;71.78
72409;BME280;60402;48.082;11.628;2024-03-08T13:48:23;94600.38;;;8.11;72.04
72409;BME280;60402;48.082;11.628;2024-03-08T13:51:09;94614.53;;;8.07;70.42
72409;BME280;60402;48.082;11.628;2024-03-08T13:54:00;94625.47;;;8.05;68.57
72409;BME280;60402;48.082;11.628;2024-03-08T13:56:46;94604.75;;;7.99;68.23
72409;BME280;60402;48.082;11.628;2024-03-08T13:59:33;94608.22;;;8.03;67.01
72409;BME280;60402;48.082;11.628;2024-03-08T14:02:20;94574.47;;;8.03;67.65
72409;BME280;60402;48.082;11.628;2024-03-08T14:05:08;94605.00;;;8.05;67.86
72409;BME280;60402;48.082;11.628;2024-03-08T14:07:54;94594.63;;;8.02;68.35
72409;BME280;60402;48.082;11.628;2024-03-08T14:10:40;94590.69;;;8.25;69.64
72409;BME280;60402;48.082;11.628;2024-03-08T14:13:27;94561.09;;;8.07;67.31
72409;BME280;60402;48.082;11.628;2024-03-08T14:16:13;94572.69;;;8.09;67.70
72409;BME280;60402;48.082;11.628;2024-03-08T14:18:59;94571.44;;;7.98;68.34
72409;BME280;60402;48.082;11.628;2024-03-08T14:21:51;94573.81;;;8.25;71.27
72409;BME280;60402;48.082;11.628;2024-03-08T14:24:41;94574.47;;;8.29;70.41
72409;BME280;60402;48.082;11.628;2024-03-08T14:27:30;94559.94;;;8.30;70.31
72409;BME280;60402;48.082;11.628;2024-03-08T14:30:16;94572.44;;;8.42;68.36
72409;BME280;60402;48.082;11.628;2024-03-08T14:33:17;94555.09;;;8.18;68.40
72409;BME280;60402;48.082;11.628;2024-03-08T14:36:05;94553.44;;;8.20;69.66
72409;BME280;60402;48.082;11.628;2024-03-08T14:38:51;94552.84;;;8.26;70.86
72409;BME280;60402;48.082;11.628;2024-03-08T14:41:38;94561.94;;;8.55;71.06